createdAt,value
2022-12-08T00:01:19.015Z,12.494302668059026
2022-12-08T00:04:17.411Z,12.512929159756549
2022-12-08T00:11:16.490Z,12.56816636451922
2022-12-08T00:14:16.365Z,12.572662417549873
2022-12-08T00:17:16.879Z,12.574589297488364
2022-12-08T00:21:17.172Z,12.65166452858839
2022-12-08T00:24:18.169Z,12.636891770888178
2022-12-08T00:27:18.414Z,12.62147672193969
2022-12-08T00:31:17.003Z,12.675429404719035
2022-12-08T00:34:17.236Z,12.696625110304103
2022-12-08T00:37:17.255Z,12.728097530763261
2022-12-08T00:41:18.716Z,12.731951297284104
2022-12-08T00:44:18.083Z,12.739016536330837
2022-12-08T00:47:22.156Z,12.749293248653794
2022-12-08T00:51:16.920Z,12.794253878754626
2022-12-08T00:54:18.228Z,12.794896173631788
2022-12-08T00:57:17.205Z,12.83857223594714
2022-12-08T01:01:16.818Z,12.869402410241673
2022-12-08T01:04:18.588Z,12.940054932517523
2022-12-08T01:07:16.880Z,12.9586815157375
2022-12-08T01:11:17.913Z,12.99914617522154
2022-12-08T01:14:16.588Z,13.037041666342793
2022-12-08T01:17:16.632Z,13.008138324224637
2022-12-08T01:21:16.893Z,13.068514204899838
2022-12-08T01:24:18.899Z,13.043464632508494
2022-12-08T01:27:16.549Z,13.089710002325683
2022-12-08T01:31:19.138Z,13.08714081449516
2022-12-08T01:34:17.132Z,13.105125130836768
2022-12-08T01:37:17.305Z,13.126963234044615
2022-12-08T01:41:18.371Z,13.133386206576779
2022-12-08T01:51:16.772Z,13.16421648106125
2022-12-08T01:54:17.753Z,13.1796316222325
2022-12-08T01:57:22.406Z,13.193762170607169
2022-12-08T02:01:16.935Z,13.215600295151763
2022-12-08T02:04:17.087Z,13.19890055238002
2022-12-08T02:07:17.796Z,13.20082744561987
2022-12-08T02:11:17.151Z,13.232942338976136
2022-12-08T02:14:17.331Z,13.256707367378931
2022-12-08T02:17:36.593Z,13.242576809199909
2022-12-08T02:21:21.528Z,13.23615382893704
2022-12-08T02:24:27.196Z,13.186054598493593
2022-12-08T02:27:38.274Z,13.182843110306203
2022-12-08T02:31:29.432Z,13.193119872906028
2022-12-08T02:34:26.865Z,13.193119872906028
2022-12-08T02:37:25.400Z,13.15201282949165
2022-12-08T02:41:25.442Z,13.130817017509344
2022-12-08T02:44:24.535Z,13.132101612033967
2022-12-08T02:47:19.194Z,13.114759587486333
2022-12-08T02:51:16.229Z,13.114759587486333
2022-12-08T02:54:16.830Z,13.093563784207891
2022-12-08T02:57:32.107Z,13.059522049912266
2022-12-08T03:01:38.126Z,13.059522049912266
2022-12-08T03:04:25.550Z,13.05374137931949
2022-12-08T03:07:24.834Z,13.062091236960622
2022-12-08T03:11:27.803Z,13.029976404085755
2022-12-08T03:14:18.784Z,12.976665806613255
2022-12-08T03:17:20.610Z,12.95161625958317
2022-12-08T03:21:19.515Z,12.967031364629293
2022-12-08T03:24:18.514Z,12.972812029696888
2022-12-08T03:27:21.743Z,12.969600549058304
2022-12-08T03:31:19.010Z,12.949689371636577
2022-12-08T03:34:18.721Z,12.936201157156393
2022-12-08T03:37:17.313Z,12.922712944681644
2022-12-08T03:41:21.569Z,12.865548637881876
2022-12-08T03:44:16.845Z,12.83214928428788
2022-12-08T03:47:17.073Z,12.800676827730877
2022-12-08T03:51:16.531Z,12.750577837776017
2022-12-08T03:54:16.305Z,12.744797186869254
2022-12-08T03:57:16.584Z,12.67928316900252
2022-12-08T04:01:16.605Z,12.685063815734702
2022-12-08T04:04:16.910Z,12.606703969155296
2022-12-08T04:07:16.767Z,12.598354153428227
2022-12-08T04:11:16.686Z,12.57844305748813
2022-12-08T04:14:16.304Z,12.511644573999456
2022-12-08T04:17:16.436Z,12.502010181401056
2022-12-08T04:21:16.914Z,12.50650623115298
2022-12-08T04:24:16.943Z,12.500725595798576
2022-12-08T04:27:16.728Z,12.504579352660585
2022-12-08T04:31:15.935Z,12.534124827374763
2022-12-08T04:34:16.453Z,12.48209910660671
2022-12-08T04:37:16.545Z,12.503937059838881
2022-12-08T04:41:16.324Z,12.503937059838881
2022-12-08T04:44:16.832Z,12.446130724507475
2022-12-08T04:47:16.780Z,12.47439159495634
2022-12-08T04:51:19.163Z,12.487879740774224
2022-12-08T04:54:16.904Z,12.456407403652065
2022-12-08T04:57:17.151Z,12.473107009744945
2022-12-08T05:01:16.656Z,12.455122818695326
2022-12-08T05:04:17.125Z,12.42043903173917
2022-12-08T05:07:17.232Z,12.439065508270868
2022-12-08T05:11:16.144Z,12.446773016919906
2022-12-08T05:14:18.139Z,12.434569461861338
2022-12-08T05:17:17.412Z,12.443561554903226
2022-12-08T05:21:16.720Z,12.448699894184482
2022-12-08T05:24:16.938Z,12.435211754191915
2022-12-08T05:27:17.022Z,12.398601098606832
2022-12-08T05:31:17.347Z,12.342721705409712
2022-12-08T05:34:16.830Z,12.265646736789858
2022-12-08T05:37:17.334Z,12.313176293032303
2022-12-08T05:41:18.671Z,12.26436215453432
2022-12-08T05:44:16.603Z,12.263719863413371
2022-12-08T05:47:16.665Z,12.20848284402391
2022-12-08T05:51:19.230Z,12.132692569827578
2022-12-08T05:54:17.065Z,12.096724326262574
2022-12-08T05:57:17.094Z,12.103789515837343
2022-12-08T06:01:20.926Z,12.09287058672644
2022-12-08T06:04:16.190Z,12.01322667296563
2022-12-08T06:07:16.536Z,12.037633671364983
2022-12-08T06:11:19.101Z,12.02157643483697
2022-12-08T06:14:16.854Z,11.940005717166878
2022-12-08T06:17:16.892Z,11.895687798946529
2022-12-08T06:21:16.765Z,11.891191779467135
2022-12-08T06:24:16.533Z,11.827605242119171
2022-12-08T06:27:16.515Z,11.787141105194404
2022-12-08T06:31:18.102Z,11.766587899700335
2022-12-08T06:34:16.282Z,11.709424321405823
2022-12-08T06:37:17.179Z,11.651618492344642
2022-12-08T06:41:17.742Z,11.650333918783872
2022-12-08T06:44:16.587Z,11.611154433918363
2022-12-08T06:47:16.712Z,11.59509727287841
2022-12-08T06:51:18.048Z,11.57325953842519
2022-12-08T06:54:16.753Z,11.564267531648875
2022-12-08T06:57:16.792Z,11.52894179937075
2022-12-08T07:01:17.003Z,11.578397828411834
2022-12-08T07:04:17.626Z,11.568121248729586
2022-12-08T07:07:17.275Z,11.58546297761868
2022-12-08T07:11:21.600Z,11.682448263260085
2022-12-08T07:14:16.958Z,11.656114499950581
2022-12-08T07:17:17.138Z,11.681163689262757
2022-12-08T07:21:17.172Z,11.755669011175632
2022-12-08T07:24:16.678Z,11.760165023938407
2022-12-08T07:27:16.704Z,11.798059997507153
2022-12-08T07:31:19.157Z,11.850085325987402
2022-12-08T07:34:17.224Z,11.810263466941342
2022-12-08T07:37:17.055Z,11.84430473246066
2022-12-08T07:41:18.963Z,11.828247530152385
2022-12-08T07:44:16.962Z,11.868069397092858
2022-12-08T07:47:16.884Z,11.900183818648747
2022-12-08T07:51:16.596Z,11.943217161357461
2022-12-08T07:54:16.735Z,11.993957994657194
2022-12-08T07:57:16.751Z,12.042771987654215
2022-12-08T08:01:22.532Z,12.160311052244287
2022-12-08T08:04:17.390Z,12.220044077857256
2022-12-08T08:07:17.037Z,12.28684234663242
2022-12-08T08:11:20.545Z,12.430715707973377
2022-12-08T08:14:16.409Z,12.536051706494709
2022-12-08T08:17:16.452Z,12.5829391110281
2022-12-08T08:21:43.143Z,12.676713992795339
2022-12-08T08:24:18.055Z,12.768562087397095
2022-12-08T08:27:16.747Z,12.800034532812788
2022-12-08T08:31:16.907Z,12.888028978955209
2022-12-08T08:34:17.330Z,12.96574677244207
2022-12-08T08:37:17.345Z,13.028049514474787
2022-12-08T08:41:16.318Z,13.121182559154477
2022-12-08T08:44:16.694Z,13.233584636959222
2022-12-08T08:47:17.178Z,13.324790996727916
2022-12-08T08:51:16.262Z,13.428201135272683
2022-12-08T08:54:16.376Z,13.512984690838493
2022-12-08T08:57:19.472Z,13.565011002800839
2022-12-08T09:01:18.089Z,13.655575394796688
2022-12-08T09:04:16.533Z,13.728797735273838
2022-12-08T09:07:16.654Z,13.778254963597373
2022-12-08T09:11:16.514Z,13.82450070798086
2022-12-08T09:14:16.229Z,13.890015552878413
2022-12-08T09:17:16.255Z,13.906073120121437
2022-12-08T09:21:23.259Z,13.937545960162334
2022-12-08T09:24:17.459Z,14.007557010840173
2022-12-08T09:27:17.587Z,14.028110724050567
2022-12-08T09:31:18.243Z,14.148863883203376
2022-12-08T09:34:16.916Z,14.180979112163186
2022-12-08T09:37:16.879Z,14.224655841792991
2022-12-08T09:41:33.878Z,14.268332592450315
2022-12-08T09:44:33.763Z,14.313293975385387
2022-12-08T09:47:21.343Z,14.419274466182197
2022-12-08T09:51:16.992Z,14.47836667238671
2022-12-08T09:54:21.546Z,14.50405894795922
2022-12-08T09:57:21.722Z,14.547093525843593
2022-12-08T10:01:17.338Z,14.634447358650869
2022-12-08T10:04:22.624Z,14.686474313744203
2022-12-08T10:07:24.450Z,14.694182013332556
2022-12-08T10:11:25.855Z,14.742355150595904
2022-12-08T10:14:25.609Z,14.786032150491156
2022-12-08T10:17:23.176Z,14.820716841857939
2022-12-08T10:21:19.197Z,14.888159335253386
2022-12-08T10:24:25.356Z,14.950463397513158
2022-12-08T10:27:16.763Z,14.99927898134374
2022-12-08T10:31:18.036Z,15.043598415728137
2022-12-08T10:34:19.744Z,15.121960367187512
2022-12-08T10:37:16.615Z,15.138660463952784
2022-12-08T10:41:18.315Z,15.180410719315114
2022-12-08T10:44:16.324Z,15.200322386331482
2022-12-08T10:47:19.807Z,15.265195912407943
2022-12-08T10:51:25.962Z,15.284465285524856
2022-12-08T10:54:27.595Z,15.321077105722452
2022-12-08T10:57:20.803Z,15.340988803611618
2022-12-08T11:01:20.540Z,15.360900505870905
2022-12-08T11:04:19.366Z,15.36925057586086
2022-12-08T11:07:21.861Z,15.326215607985159
2022-12-08T11:11:17.589Z,15.351265810683618
2022-12-08T11:14:21.527Z,15.368608262757425
2022-12-08T11:17:24.794Z,15.427058773791941
2022-12-08T11:21:18.889Z,15.461743710231167
2022-12-08T11:24:23.652Z,15.506063370534047
2022-12-08T11:27:17.320Z,15.538179079934434
2022-12-08T11:31:27.980Z,15.484867008557558
2022-12-08T11:34:23.745Z,15.515698082160451
2022-12-08T11:37:22.560Z,15.485509322484086
2022-12-08T11:41:20.323Z,15.488078578235672
2022-12-08T11:44:25.138Z,15.498997915991641
2022-12-08T11:47:23.774Z,15.500924858085
2022-12-08T11:51:21.881Z,15.527259737462737
2022-12-08T11:54:23.342Z,15.519551967097504
2022-12-08T11:57:16.912Z,15.563229341158877
2022-12-08T12:01:20.509Z,15.547813794971443
2022-12-08T12:04:24.102Z,15.531755937144862
2022-12-08T12:07:36.412Z,15.574791002518396
2022-12-08T12:12:25.848Z,15.60819136583341
2022-12-08T12:14:32.772Z,15.630672386526658
2022-12-08T12:17:31.641Z,15.65443804303104
2022-12-08T12:21:21.645Z,15.673707498821022
2022-12-08T12:24:25.450Z,15.716742631528996
2022-12-08T12:27:27.123Z,15.684626858918728
2022-12-08T12:31:18.607Z,15.701969374716281
2022-12-08T12:34:22.459Z,15.780974210855584
2022-12-08T12:37:21.141Z,15.765558627669908
2022-12-08T12:41:25.346Z,15.754639257831514
2022-12-08T12:45:11.431Z,15.727661996806273
2022-12-08T12:47:49.730Z,15.815659282600336
2022-12-08T12:51:43.281Z,15.777120314813601
2022-12-08T12:54:21.429Z,15.809878436388681
2022-12-08T12:57:22.476Z,15.793178216068554
2022-12-08T13:01:54.608Z,15.786112739166219
2022-12-08T13:04:18.419Z,15.770054839161821
2022-12-08T13:07:20.679Z,15.770054839161821
2022-12-08T13:11:16.061Z,15.839424987562598
2022-12-08T13:14:34.852Z,15.876037031714167
2022-12-08T13:17:28.507Z,15.926780064704143
2022-12-08T13:21:20.710Z,15.995508015398173
2022-12-08T13:24:28.874Z,16.023127673800627
2022-12-08T13:27:33.900Z,16.055243566236822
2022-12-08T13:31:35.959Z,16.048178068925427
2022-12-08T13:34:21.645Z,16.03725866507193
2022-12-08T13:37:25.045Z,15.980734713192579
2022-12-08T13:41:21.382Z,15.944764943968403
2022-12-08T13:47:33.720Z,16.0250546270262
2022-12-08T13:55:13.617Z,16.00321582619954
2022-12-08T13:57:25.828Z,15.99486569786095
2022-12-08T14:01:19.684Z,15.979450078331865
2022-12-08T14:05:09.370Z,15.967888365403997
2022-12-08T14:07:18.385Z,15.99486569786095
2022-12-08T14:11:36.929Z,16.035974029410863
2022-12-08T14:14:45.845Z,15.978165443489342
2022-12-08T14:17:19.882Z,15.937057138132877
2022-12-08T14:21:21.479Z,15.996150332939942
2022-12-08T14:24:17.178Z,15.965319096064558
2022-12-08T14:27:19.068Z,15.96274982679788
2022-12-08T14:31:16.827Z,15.925495430607407
2022-12-08T14:34:16.534Z,15.893379584100694
2022-12-08T14:37:16.462Z,15.885029465871138
2022-12-08T14:41:16.042Z,15.925495430607407
2022-12-08T14:44:22.958Z,15.888241049714633
2022-12-08T14:47:18.681Z,15.916502992439565
2022-12-08T14:51:25.468Z,15.84006730399933
2022-12-08T14:54:18.080Z,15.824651710772832
2022-12-08T14:57:17.540Z,15.845205835656907
2022-12-08T15:01:22.461Z,15.791251267767894
2022-12-08T15:04:22.306Z,15.811163068848327
2022-12-08T15:07:18.587Z,15.77647799882252
2022-12-08T15:11:34.158Z,15.764273995856001
2022-12-08T15:14:29.708Z,15.710319476097448
2022-12-08T15:17:39.917Z,15.649941837268944
2022-12-08T15:21:16.633Z,15.632599331416714
2022-12-08T15:24:25.220Z,15.540106022859982
2022-12-08T15:27:18.814Z,15.442474299461173
2022-12-08T15:31:16.892Z,15.427701087309197
2022-12-08T15:34:16.532Z,15.317223229216415
2022-12-08T15:37:21.186Z,15.267765161920398
2022-12-08T15:41:16.622Z,15.238218796920046
2022-12-08T15:44:16.863Z,15.157287498586811
2022-12-08T15:47:19.203Z,15.0930563608199
2022-12-08T15:51:16.503Z,15.071217784338296
2022-12-08T15:54:17.261Z,15.106544895978823
2022-12-08T15:57:30.045Z,15.03781761871105
2022-12-08T16:01:17.434Z,14.99863667085965
2022-12-08T16:05:11.548Z,14.901647839948783
2022-12-08T16:07:22.131Z,14.847051523788924
2022-12-08T16:21:41.794Z,14.753274398598387
2022-12-08T16:24:17.269Z,14.748778237497026
2022-12-08T16:27:59.210Z,14.67170122469688
2022-12-08T16:31:21.454Z,14.653716597799212
2022-12-08T16:34:17.006Z,14.568289668722809
2022-12-08T16:37:18.386Z,14.494424343766877
2022-12-08T16:51:23.392Z,14.329351617548037
2022-12-08T16:54:17.003Z,14.301090169242617
2022-12-08T16:57:17.019Z,14.291455586605299
2022-12-08T17:01:18.611Z,14.285674837514033
2022-12-08T17:04:31.690Z,14.215021267272913
2022-12-08T17:07:17.038Z,14.207955913275146
2022-12-08T17:11:24.540Z,14.127667838317667
2022-12-08T17:14:16.874Z,14.105187190062498
2022-12-08T17:17:16.575Z,13.970945720718827
2022-12-08T17:21:17.322Z,13.991499425634629
2022-12-08T17:24:21.801Z,13.958099657511138
2022-12-08T17:27:17.159Z,13.967091901565528
2022-12-08T17:31:17.137Z,13.802662436862102
2022-12-08T17:34:17.142Z,13.812939269674917
2022-12-08T17:37:17.442Z,13.749993686968173
2022-12-08T17:41:16.343Z,13.695398063866014
2022-12-08T17:44:18.509Z,13.64786778344751
2022-12-08T17:47:16.580Z,13.618321946008654
2022-12-08T17:51:16.796Z,13.51619619071289
2022-12-08T17:54:17.674Z,13.509130891139284
2022-12-08T17:57:16.979Z,13.485365796611678
2022-12-08T18:01:16.492Z,13.43526642854349
2022-12-08T18:04:16.631Z,13.459673809530887
2022-12-08T18:07:16.800Z,13.412785951864498
2022-12-08T18:11:18.358Z,13.387736284412767
2022-12-08T18:14:16.607Z,13.303595144377686
2022-12-08T18:17:16.769Z,13.243219107251207
2022-12-08T18:21:23.113Z,13.19440446831286
2022-12-08T18:24:20.947Z,13.212388805918454
2022-12-08T18:27:16.599Z,13.145589855640718
2022-12-08T18:31:19.425Z,13.157151208899814
2022-12-08T18:34:19.986Z,13.134028503855006
2022-12-08T18:37:17.127Z,13.069798798542251
2022-12-08T18:41:18.365Z,13.03061870063184
2022-12-08T18:44:16.904Z,12.96895825294423
2022-12-08T18:47:16.489Z,12.985015657160329
2022-12-08T18:51:19.244Z,12.935558861278787
2022-12-08T18:54:17.013Z,12.877752250916183
2022-12-08T18:57:18.240Z,12.743512597828886
2022-12-08T19:01:16.799Z,12.708186406346886
2022-12-08T19:04:29.803Z,12.61505378565089
2022-12-08T19:07:17.648Z,12.495587253570557
2022-12-08T19:11:17.594Z,12.470537839376721
2022-12-08T19:14:19.138Z,12.469895546796034
2022-12-08T19:17:16.984Z,12.347860038979343
2022-12-08T19:21:15.993Z,12.34657545555965
2022-12-08T19:24:16.314Z,12.267573610207274
2022-12-08T19:27:16.363Z,12.234174476765565
2022-12-08T19:31:16.184Z,12.248304877874853
2022-12-08T19:34:16.627Z,12.171872279938544
2022-12-08T19:37:16.688Z,12.13718860127592
2022-12-08T19:51:16.838Z,11.946428605661731
2022-12-08T19:54:17.045Z,11.870638550398962
2022-12-08T19:57:17.100Z,11.864215667270127
2022-12-08T20:01:16.503Z,11.794206270658469
2022-12-08T20:04:17.896Z,11.729977513948688
2022-12-08T20:07:16.769Z,11.726123789992197
2022-12-08T20:11:16.703Z,11.69079799468609
2022-12-08T20:14:17.667Z,11.624642451388354
2022-12-08T20:17:16.885Z,11.616292726051416
2022-12-08T20:21:16.081Z,11.572617252197324
2022-12-08T20:24:16.623Z,11.489120081296369
2022-12-08T20:27:16.339Z,11.500681223452649
2022-12-08T20:31:18.809Z,11.468566943323186
2022-12-08T20:34:18.141Z,11.449298380702476
2022-12-08T20:37:16.405Z,11.426176110960023
2022-12-08T20:41:17.392Z,11.42296468507302
2022-12-08T20:44:18.166Z,11.424249255414178
2022-12-08T20:47:17.709Z,11.382500728637478
2022-12-08T20:51:18.937Z,11.387639007819326
2022-12-08T20:54:16.909Z,11.33625622909758
2022-12-08T20:57:16.855Z,11.345248213272953
2022-12-08T21:01:18.824Z,11.367728177610843
2022-12-08T21:04:17.070Z,11.23670217814506
2022-12-08T21:07:16.670Z,11.263035819705056
2022-12-08T21:11:16.787Z,11.245694152452415
2022-12-08T21:14:16.768Z,11.245694152452415
2022-12-08T21:17:17.060Z,11.216149097360903
2022-12-08T21:21:18.022Z,11.2116531115601
2022-12-08T21:24:17.241Z,11.224498785867855
2022-12-08T21:27:17.052Z,11.223214218355224
2022-12-08T21:31:18.286Z,11.212295395232285
2022-12-08T21:34:17.127Z,11.182108067555328
2022-12-08T21:37:17.767Z,11.212295395232285
2022-12-08T21:41:20.111Z,11.274596933048542
2022-12-08T21:44:18.798Z,11.284231195293614
2022-12-08T21:47:16.988Z,11.31249170378178
2022-12-08T21:51:16.371Z,11.386354437996578
2022-12-08T21:54:19.255Z,11.419110974158684
2022-12-08T21:57:16.765Z,11.462786374107235
2022-12-08T22:01:16.707Z,11.508388652375379
2022-12-08T22:04:18.514Z,11.600235564101968
2022-12-08T22:07:17.442Z,11.64005733095255
2022-12-08T22:11:16.177Z,11.686301985361206
2022-12-08T22:14:16.492Z,11.738327249749364
2022-12-08T22:17:16.745Z,11.783287378809565
2022-12-08T22:21:17.598Z,11.85201219057817
2022-12-08T22:24:17.177Z,11.878988299146295
2022-12-08T22:27:17.017Z,11.909175858721664
2022-12-08T22:31:18.397Z,11.97083558608947
2022-12-08T22:34:16.816Z,11.989461970307456
2022-12-08T22:37:16.764Z,12.020934145434968
2022-12-08T22:41:16.779Z,12.110212415928254
2022-12-08T22:44:16.659Z,12.185360380777364
2022-12-08T22:47:16.701Z,12.32088379098568
2022-12-08T22:51:17.034Z,12.453195941294325
2022-12-08T22:54:17.176Z,12.544401516487415
2022-12-08T22:57:17.164Z,12.60092332741624
2022-12-08T23:01:23.193Z,12.693413639442587
2022-12-08T23:04:18.365Z,12.763423729998703
2022-12-08T23:07:16.720Z,12.835360760060667
2022-12-08T23:11:17.186Z,12.898948003772238
2022-12-08T23:14:16.693Z,12.961892995989547
2022-12-08T23:17:16.630Z,13.002999953256586
2022-12-08T23:21:18.527Z,13.094848378205006
2022-12-08T23:24:17.061Z,13.137882287619869
2022-12-08T23:27:16.829Z,13.16100499364693
2022-12-08T23:31:17.585Z,13.212388805918454
2022-12-08T23:34:17.132Z,13.261203454533824
2022-12-08T23:37:16.705Z,13.299741353573335
2022-12-08T23:41:16.735Z,13.360759727200001
2022-12-08T23:44:17.263Z,13.399939967691898
2022-12-08T23:47:17.394Z,13.427558835911714
2022-12-08T23:51:17.843Z,13.47573130060373
2022-12-08T23:54:17.577Z,13.506561691430761
2022-12-08T23:57:17.172Z,13.552164997073215
